sensor_id;sensor_type;location;lat;lon;timestamp;P1;durP1;ratioP1;P2;durP2;ratioP2
19587;SDS011;9940;47.252;8.696;2023-05-07T00:01:38;1.45;;;0.85;;
19587;SDS011;9940;47.252;8.696;2023-05-07T00:04:04;3.55;;;1.20;;
19587;SDS011;9940;47.252;8.696;2023-05-07T00:06:30;3.45;;;1.08;;
19587;SDS011;9940;47.252;8.696;2023-05-07T00:08:57;1.20;;;0.82;;
19587;SDS011;9940;47.252;8.696;2023-05-07T00:11:23;2.63;;;1.00;;
19587;SDS011;9940;47.252;8.696;2023-05-07T00:13:51;1.10;;;1.00;;
19587;SDS011;9940;47.252;8.696;2023-05-07T00:16:17;1.15;;;0.90;;
19587;SDS011;9940;47.252;8.696;2023-05-07T00:18:43;3.53;;;0.90;;
19587;SDS011;9940;47.252;8.696;2023-05-07T00:21:10;0.80;;;0.80;;
19587;SDS011;9940;47.252;8.696;2023-05-07T00:23:35;2.38;;;0.90;;
19587;SDS011;9940;47.252;8.696;2023-05-07T00:26:01;2.95;;;0.98;;
19587;SDS011;9940;47.252;8.696;2023-05-07T00:28:30;1.25;;;1.08;;
19587;SDS011;9940;47.252;8.696;2023-05-07T00:30:58;4.35;;;1.17;;
19587;SDS011;9940;47.252;8.696;2023-05-07T00:33:23;1.27;;;1.17;;
19587;SDS011;9940;47.252;8.696;2023-05-07T00:35:51;1.67;;;0.90;;
19587;SDS011;9940;47.252;8.696;2023-05-07T00:38:17;1.23;;;1.02;;
19587;SDS011;9940;47.252;8.696;2023-05-07T00:40:42;1.10;;;1.00;;
19587;SDS011;9940;47.252;8.696;2023-05-07T00:43:10;6.68;;;1.00;;
19587;SDS011;9940;47.252;8.696;2023-05-07T00:45:37;2.00;;;0.77;;
19587;SDS011;9940;47.252;8.696;2023-05-07T00:48:08;1.58;;;1.10;;
19587;SDS011;9940;47.252;8.696;2023-05-07T00:50:36;1.55;;;0.90;;
19587;SDS011;9940;47.252;8.696;2023-05-07T00:53:06;1.08;;;0.95;;
19587;SDS011;9940;47.252;8.696;2023-05-07T00:55:32;1.23;;;0.88;;
19587;SDS011;9940;47.252;8.696;2023-05-07T00:57:58;2.45;;;1.05;;
19587;SDS011;9940;47.252;8.696;2023-05-07T01:00:28;1.00;;;0.90;;
19587;SDS011;9940;47.252;8.696;2023-05-07T01:02:54;0.68;;;0.68;;
19587;SDS011;9940;47.252;8.696;2023-05-07T01:05:20;1.58;;;0.98;;
19587;SDS011;9940;47.252;8.696;2023-05-07T01:07:48;4.63;;;1.00;;
19587;SDS011;9940;47.252;8.696;2023-05-07T01:10:14;2.55;;;0.77;;
19587;SDS011;9940;47.252;8.696;2023-05-07T01:12:43;1.33;;;1.00;;
19587;SDS011;9940;47.252;8.696;2023-05-07T01:15:13;1.10;;;1.00;;
19587;SDS011;9940;47.252;8.696;2023-05-07T01:17:40;2.72;;;0.95;;
19587;SDS011;9940;47.252;8.696;2023-05-07T01:20:07;2.78;;;1.05;;
19587;SDS011;9940;47.252;8.696;2023-05-07T01:22:35;1.10;;;1.00;;
19587;SDS011;9940;47.252;8.696;2023-05-07T01:25:05;2.40;;;1.05;;
19587;SDS011;9940;47.252;8.696;2023-05-07T01:27:32;1.02;;;0.85;;
19587;SDS011;9940;47.252;8.696;2023-05-07T01:30:02;1.83;;;1.13;;
19587;SDS011;9940;47.252;8.696;2023-05-07T01:32:44;1.20;;;0.90;;
19587;SDS011;9940;47.252;8.696;2023-05-07T01:35:38;1.25;;;1.00;;
19587;SDS011;9940;47.252;8.696;2023-05-07T01:38:10;1.80;;;1.10;;
19587;SDS011;9940;47.252;8.696;2023-05-07T01:40:37;1.33;;;1.23;;
19587;SDS011;9940;47.252;8.696;2023-05-07T01:43:03;1.52;;;1.00;;
19587;SDS011;9940;47.252;8.696;2023-05-07T01:45:30;2.72;;;1.08;;
19587;SDS011;9940;47.252;8.696;2023-05-07T01:47:59;1.95;;;1.27;;
19587;SDS011;9940;47.252;8.696;2023-05-07T01:50:25;1.13;;;1.02;;
19587;SDS011;9940;47.252;8.696;2023-05-07T01:52:51;1.50;;;1.10;;
19587;SDS011;9940;47.252;8.696;2023-05-07T01:55:17;1.38;;;1.27;;
19587;SDS011;9940;47.252;8.696;2023-05-07T01:57:43;1.42;;;1.15;;
19587;SDS011;9940;47.252;8.696;2023-05-07T02:00:09;5.88;;;1.10;;
19587;SDS011;9940;47.252;8.696;2023-05-07T02:02:35;2.97;;;1.00;;
19587;SDS011;9940;47.252;8.696;2023-05-07T02:05:01;1.60;;;1.30;;
19587;SDS011;9940;47.252;8.696;2023-05-07T02:07:31;3.03;;;1.27;;
19587;SDS011;9940;47.252;8.696;2023-05-07T02:09:57;1.75;;;1.10;;
19587;SDS011;9940;47.252;8.696;2023-05-07T02:12:23;1.20;;;1.10;;
19587;SDS011;9940;47.252;8.696;2023-05-07T02:14:49;1.50;;;1.40;;
19587;SDS011;9940;47.252;8.696;2023-05-07T02:17:17;2.83;;;1.10;;
19587;SDS011;9940;47.252;8.696;2023-05-07T02:19:42;0.85;;;0.85;;
19587;SDS011;9940;47.252;8.696;2023-05-07T02:22:10;1.15;;;0.98;;
19587;SDS011;9940;47.252;8.696;2023-05-07T02:24:38;1.60;;;1.08;;
19587;SDS011;9940;47.252;8.696;2023-05-07T02:27:04;1.70;;;1.00;;
19587;SDS011;9940;47.252;8.696;2023-05-07T02:29:32;3.22;;;1.13;;
19587;SDS011;9940;47.252;8.696;2023-05-07T02:32:00;1.23;;;1.10;;
19587;SDS011;9940;47.252;8.696;2023-05-07T02:34:28;2.05;;;1.02;;
19587;SDS011;9940;47.252;8.696;2023-05-07T02:36:53;1.35;;;1.13;;
19587;SDS011;9940;47.252;8.696;2023-05-07T02:39:20;1.30;;;1.20;;
19587;SDS011;9940;47.252;8.696;2023-05-07T02:41:48;1.90;;;1.08;;
19587;SDS011;9940;47.252;8.696;2023-05-07T02:44:16;0.93;;;0.88;;
19587;SDS011;9940;47.252;8.696;2023-05-07T02:46:44;3.13;;;1.10;;
19587;SDS011;9940;47.252;8.696;2023-05-07T02:49:12;1.40;;;1.00;;
19587;SDS011;9940;47.252;8.696;2023-05-07T02:51:37;0.70;;;0.70;;
19587;SDS011;9940;47.252;8.696;2023-05-07T02:54:05;1.00;;;0.90;;
19587;SDS011;9940;47.252;8.696;2023-05-07T02:56:31;4.63;;;1.20;;
19587;SDS011;9940;47.252;8.696;2023-05-07T02:58:57;1.35;;;0.90;;
19587;SDS011;9940;47.252;8.696;2023-05-07T03:01:25;1.10;;;1.00;;
19587;SDS011;9940;47.252;8.696;2023-05-07T03:03:51;3.60;;;1.08;;
19587;SDS011;9940;47.252;8.696;2023-05-07T03:06:16;1.00;;;0.88;;
19587;SDS011;9940;47.252;8.696;2023-05-07T03:08:44;1.10;;;0.90;;
19587;SDS011;9940;47.252;8.696;2023-05-07T03:11:12;3.10;;;0.95;;
19587;SDS011;9940;47.252;8.696;2023-05-07T03:13:38;3.92;;;1.33;;
19587;SDS011;9940;47.252;8.696;2023-05-07T03:16:04;1.75;;;1.02;;
19587;SDS011;9940;47.252;8.696;2023-05-07T03:18:30;7.65;;;1.10;;
19587;SDS011;9940;47.252;8.696;2023-05-07T03:20:55;1.40;;;1.20;;
19587;SDS011;9940;47.252;8.696;2023-05-07T03:23:23;1.02;;;0.90;;
19587;SDS011;9940;47.252;8.696;2023-05-07T03:25:49;3.67;;;1.20;;
19587;SDS011;9940;47.252;8.696;2023-05-07T03:28:15;1.15;;;0.90;;
19587;SDS011;9940;47.252;8.696;2023-05-07T03:30:43;4.47;;;1.40;;
19587;SDS011;9940;47.252;8.696;2023-05-07T03:33:13;4.65;;;1.02;;
19587;SDS011;9940;47.252;8.696;2023-05-07T03:35:39;3.28;;;1.08;;
19587;SDS011;9940;47.252;8.696;2023-05-07T03:38:06;1.55;;;1.10;;
19587;SDS011;9940;47.252;8.696;2023-05-07T03:40:32;1.27;;;1.15;;
19587;SDS011;9940;47.252;8.696;2023-05-07T03:43:00;2.47;;;1.08;;
19587;SDS011;9940;47.252;8.696;2023-05-07T03:45:26;3.53;;;1.02;;
19587;SDS011;9940;47.252;8.696;2023-05-07T03:47:54;1.35;;;1.25;;
19587;SDS011;9940;47.252;8.696;2023-05-07T03:50:22;1.77;;;1.17;;
19587;SDS011;9940;47.252;8.696;2023-05-07T03:52:48;1.13;;;0.95;;
19587;SDS011;9940;47.252;8.696;2023-05-07T03:55:13;2.22;;;1.20;;
19587;SDS011;9940;47.252;8.696;2023-05-07T03:57:39;1.65;;;1.30;;
19587;SDS011;9940;47.252;8.696;2023-05-07T04:00:05;2.90;;;0.90;;
19587;SDS011;9940;47.252;8.696;2023-05-07T04:02:32;1.40;;;1.10;;
19587;SDS011;9940;47.252;8.696;2023-05-07T04:04:58;1.95;;;1.10;;
19587;SDS011;9940;47.252;8.696;2023-05-07T04:07:23;1.83;;;1.00;;
19587;SDS011;9940;47.252;8.696;2023-05-07T04:09:49;1.77;;;1.05;;
19587;SDS011;9940;47.252;8.696;2023-05-07T04:12:17;2.35;;;1.00;;
19587;SDS011;9940;47.252;8.696;2023-05-07T04:14:43;1.08;;;0.98;;
19587;SDS011;9940;47.252;8.696;2023-05-07T04:17:11;1.52;;;1.33;;
19587;SDS011;9940;47.252;8.696;2023-05-07T04:19:37;1.50;;;1.23;;
19587;SDS011;9940;47.252;8.696;2023-05-07T04:22:03;1.10;;;1.00;;
19587;SDS011;9940;47.252;8.696;2023-05-07T04:24:31;2.22;;;1.42;;
19587;SDS011;9940;47.252;8.696;2023-05-07T04:26:58;1.67;;;1.05;;
19587;SDS011;9940;47.252;8.696;2023-05-07T04:29:26;1.00;;;0.80;;
19587;SDS011;9940;47.252;8.696;2023-05-07T04:31:52;3.85;;;1.02;;
19587;SDS011;9940;47.252;8.696;2023-05-07T04:34:17;1.58;;;1.10;;
19587;SDS011;9940;47.252;8.696;2023-05-07T04:36:45;2.78;;;1.10;;
19587;SDS011;9940;47.252;8.696;2023-05-07T04:39:16;1.63;;;1.20;;
19587;SDS011;9940;47.252;8.696;2023-05-07T04:41:41;1.60;;;1.45;;
19587;SDS011;9940;47.252;8.696;2023-05-07T04:44:09;1.13;;;1.00;;
19587;SDS011;9940;47.252;8.696;2023-05-07T04:46:38;1.73;;;1.27;;
19587;SDS011;9940;47.252;8.696;2023-05-07T04:49:03;4.10;;;1.15;;
19587;SDS011;9940;47.252;8.696;2023-05-07T04:51:30;2.97;;;1.20;;
19587;SDS011;9940;47.252;8.696;2023-05-07T04:53:57;2.50;;;1.25;;
19587;SDS011;9940;47.252;8.696;2023-05-07T04:56:23;1.55;;;1.40;;
19587;SDS011;9940;47.252;8.696;2023-05-07T04:58:52;1.85;;;1.50;;
19587;SDS011;9940;47.252;8.696;2023-05-07T05:01:18;1.40;;;1.10;;
19587;SDS011;9940;47.252;8.696;2023-05-07T05:03:43;3.22;;;1.40;;
19587;SDS011;9940;47.252;8.696;2023-05-07T05:06:09;1.25;;;1.00;;
19587;SDS011;9940;47.252;8.696;2023-05-07T05:08:34;1.27;;;1.13;;
19587;SDS011;9940;47.252;8.696;2023-05-07T05:11:01;1.45;;;1.10;;
19587;SDS011;9940;47.252;8.696;2023-05-07T05:13:27;3.85;;;1.42;;
19587;SDS011;9940;47.252;8.696;2023-05-07T05:15:53;2.42;;;1.30;;
19587;SDS011;9940;47.252;8.696;2023-05-07T05:18:23;3.63;;;1.50;;
19587;SDS011;9940;47.252;8.696;2023-05-07T05:20:49;3.53;;;1.40;;
19587;SDS011;9940;47.252;8.696;2023-05-07T05:23:16;1.73;;;1.30;;
19587;SDS011;9940;47.252;8.696;2023-05-07T05:25:42;1.45;;;1.25;;
19587;SDS011;9940;47.252;8.696;2023-05-07T05:28:08;3.05;;;1.48;;
19587;SDS011;9940;47.252;8.696;2023-05-07T05:30:33;3.55;;;1.95;;
19587;SDS011;9940;47.252;8.696;2023-05-07T05:33:01;2.65;;;1.98;;
19587;SDS011;9940;47.252;8.696;2023-05-07T05:35:27;2.55;;;1.75;;
19587;SDS011;9940;47.252;8.696;2023-05-07T05:37:54;1.70;;;1.48;;
19587;SDS011;9940;47.252;8.696;2023-05-07T05:40:22;2.58;;;1.77;;
19587;SDS011;9940;47.252;8.696;2023-05-07T05:42:48;5.80;;;1.65;;
19587;SDS011;9940;47.252;8.696;2023-05-07T05:45:14;1.85;;;1.63;;
19587;SDS011;9940;47.252;8.696;2023-05-07T05:47:40;2.08;;;1.88;;
19587;SDS011;9940;47.252;8.696;2023-05-07T05:50:06;1.95;;;1.60;;
19587;SDS011;9940;47.252;8.696;2023-05-07T05:52:32;2.85;;;1.75;;
19587;SDS011;9940;47.252;8.696;2023-05-07T05:55:00;1.75;;;1.65;;
19587;SDS011;9940;47.252;8.696;2023-05-07T05:57:26;2.92;;;1.80;;
19587;SDS011;9940;47.252;8.696;2023-05-07T05:59:51;1.83;;;1.55;;
19587;SDS011;9940;47.252;8.696;2023-05-07T06:02:17;3.55;;;1.65;;
19587;SDS011;9940;47.252;8.696;2023-05-07T06:04:42;4.40;;;2.42;;
19587;SDS011;9940;47.252;8.696;2023-05-07T06:07:08;3.67;;;2.00;;
19587;SDS011;9940;47.252;8.696;2023-05-07T06:09:34;2.05;;;1.85;;
19587;SDS011;9940;47.252;8.696;2023-05-07T06:12:02;2.80;;;1.90;;
19587;SDS011;9940;47.252;8.696;2023-05-07T06:14:32;2.20;;;1.90;;
19587;SDS011;9940;47.252;8.696;2023-05-07T06:17:00;2.47;;;2.03;;
19587;SDS011;9940;47.252;8.696;2023-05-07T06:19:26;4.15;;;1.83;;
19587;SDS011;9940;47.252;8.696;2023-05-07T06:21:53;1.83;;;1.60;;
19587;SDS011;9940;47.252;8.696;2023-05-07T06:24:18;2.90;;;1.98;;
19587;SDS011;9940;47.252;8.696;2023-05-07T06:26:46;1.90;;;1.70;;
19587;SDS011;9940;47.252;8.696;2023-05-07T06:29:16;2.47;;;1.85;;
19587;SDS011;9940;47.252;8.696;2023-05-07T06:31:42;3.05;;;1.90;;
19587;SDS011;9940;47.252;8.696;2023-05-07T06:34:10;1.95;;;1.67;;
19587;SDS011;9940;47.252;8.696;2023-05-07T06:36:39;2.35;;;1.60;;
19587;SDS011;9940;47.252;8.696;2023-05-07T06:39:05;3.95;;;1.55;;
19587;SDS011;9940;47.252;8.696;2023-05-07T06:41:33;2.28;;;1.98;;
19587;SDS011;9940;47.252;8.696;2023-05-07T06:44:00;4.22;;;1.83;;
19587;SDS011;9940;47.252;8.696;2023-05-07T06:46:29;4.57;;;1.80;;
19587;SDS011;9940;47.252;8.696;2023-05-07T06:48:54;1.83;;;1.63;;
19587;SDS011;9940;47.252;8.696;2023-05-07T06:51:21;2.33;;;1.50;;
19587;SDS011;9940;47.252;8.696;2023-05-07T06:53:50;1.52;;;1.42;;
19587;SDS011;9940;47.252;8.696;2023-05-07T06:56:20;1.85;;;1.60;;
19587;SDS011;9940;47.252;8.696;2023-05-07T06:58:46;1.75;;;1.48;;
19587;SDS011;9940;47.252;8.696;2023-05-07T07:01:11;2.50;;;1.77;;
19587;SDS011;9940;47.252;8.696;2023-05-07T07:03:40;4.32;;;1.48;;
19587;SDS011;9940;47.252;8.696;2023-05-07T07:06:05;1.92;;;1.83;;
19587;SDS011;9940;47.252;8.696;2023-05-07T07:08:31;1.60;;;1.50;;
19587;SDS011;9940;47.252;8.696;2023-05-07T07:10:59;3.55;;;1.80;;
19587;SDS011;9940;47.252;8.696;2023-05-07T07:13:25;1.88;;;1.75;;
19587;SDS011;9940;47.252;8.696;2023-05-07T07:15:51;1.92;;;1.70;;
19587;SDS011;9940;47.252;8.696;2023-05-07T07:18:18;2.15;;;1.95;;
19587;SDS011;9940;47.252;8.696;2023-05-07T07:20:47;2.10;;;1.88;;
19587;SDS011;9940;47.252;8.696;2023-05-07T07:23:15;3.47;;;1.80;;
19587;SDS011;9940;47.252;8.696;2023-05-07T07:25:40;2.30;;;1.83;;
19587;SDS011;9940;47.252;8.696;2023-05-07T07:28:06;3.10;;;1.85;;
19587;SDS011;9940;47.252;8.696;2023-05-07T07:30:32;2.03;;;1.50;;
19587;SDS011;9940;47.252;8.696;2023-05-07T07:32:58;2.17;;;1.98;;
19587;SDS011;9940;47.252;8.696;2023-05-07T07:35:31;2.08;;;1.88;;
19587;SDS011;9940;47.252;8.696;2023-05-07T07:38:00;2.35;;;2.15;;
19587;SDS011;9940;47.252;8.696;2023-05-07T07:40:28;4.00;;;2.40;;
19587;SDS011;9940;47.252;8.696;2023-05-07T07:42:56;3.85;;;2.22;;
19587;SDS011;9940;47.252;8.696;2023-05-07T07:45:22;2.35;;;1.85;;
19587;SDS011;9940;47.252;8.696;2023-05-07T07:47:48;4.22;;;2.17;;
19587;SDS011;9940;47.252;8.696;2023-05-07T07:50:13;2.63;;;2.17;;
19587;SDS011;9940;47.252;8.696;2023-05-07T07:52:42;2.80;;;1.77;;
19587;SDS011;9940;47.252;8.696;2023-05-07T07:55:07;3.33;;;1.90;;
19587;SDS011;9940;47.252;8.696;2023-05-07T07:57:33;1.92;;;1.58;;
19587;SDS011;9940;47.252;8.696;2023-05-07T08:00:02;2.50;;;1.42;;
19587;SDS011;9940;47.252;8.696;2023-05-07T08:02:33;3.97;;;1.67;;
19587;SDS011;9940;47.252;8.696;2023-05-07T08:04:59;1.63;;;1.52;;
19587;SDS011;9940;47.252;8.696;2023-05-07T08:07:25;2.03;;;1.55;;
19587;SDS011;9940;47.252;8.696;2023-05-07T08:09:50;2.20;;;2.00;;
19587;SDS011;9940;47.252;8.696;2023-05-07T08:12:18;1.48;;;1.38;;
19587;SDS011;9940;47.252;8.696;2023-05-07T08:14:44;2.80;;;1.52;;
19587;SDS011;9940;47.252;8.696;2023-05-07T08:17:09;1.88;;;1.40;;
19587;SDS011;9940;47.252;8.696;2023-05-07T08:19:35;2.40;;;1.30;;
19587;SDS011;9940;47.252;8.696;2023-05-07T08:22:01;1.80;;;1.70;;
19587;SDS011;9940;47.252;8.696;2023-05-07T08:24:29;2.85;;;1.52;;
19587;SDS011;9940;47.252;8.696;2023-05-07T08:26:54;1.88;;;1.42;;
19587;SDS011;9940;47.252;8.696;2023-05-07T08:29:20;1.85;;;1.67;;
19587;SDS011;9940;47.252;8.696;2023-05-07T08:31:45;1.40;;;1.30;;
19587;SDS011;9940;47.252;8.696;2023-05-07T08:34:13;1.58;;;1.48;;
19587;SDS011;9940;47.252;8.696;2023-05-07T08:36:39;2.53;;;1.60;;
19587;SDS011;9940;47.252;8.696;2023-05-07T08:39:07;2.05;;;1.77;;
19587;SDS011;9940;47.252;8.696;2023-05-07T08:41:38;2.08;;;1.88;;
19587;SDS011;9940;47.252;8.696;2023-05-07T08:44:11;2.55;;;1.63;;
19587;SDS011;9940;47.252;8.696;2023-05-07T08:46:39;2.25;;;1.35;;
19587;SDS011;9940;47.252;8.696;2023-05-07T08:49:05;3.03;;;1.80;;
19587;SDS011;9940;47.252;8.696;2023-05-07T08:51:35;2.40;;;1.52;;
19587;SDS011;9940;47.252;8.696;2023-05-07T08:54:01;2.38;;;1.80;;
19587;SDS011;9940;47.252;8.696;2023-05-07T08:56:27;1.77;;;1.60;;
19587;SDS011;9940;47.252;8.696;2023-05-07T08:58:55;3.25;;;1.85;;
19587;SDS011;9940;47.252;8.696;2023-05-07T09:01:23;2.70;;;1.65;;
19587;SDS011;9940;47.252;8.696;2023-05-07T09:03:49;3.92;;;1.63;;
19587;SDS011;9940;47.252;8.696;2023-05-07T09:06:19;3.50;;;1.75;;
19587;SDS011;9940;47.252;8.696;2023-05-07T09:08:51;1.70;;;1.60;;
19587;SDS011;9940;47.252;8.696;2023-05-07T09:11:21;1.73;;;1.63;;
19587;SDS011;9940;47.252;8.696;2023-05-07T09:13:53;2.13;;;1.50;;
19587;SDS011;9940;47.252;8.696;2023-05-07T09:16:21;1.85;;;1.75;;
19587;SDS011;9940;47.252;8.696;2023-05-07T09:18:48;2.47;;;1.45;;
19587;SDS011;9940;47.252;8.696;2023-05-07T09:21:17;2.25;;;2.00;;
19587;SDS011;9940;47.252;8.696;2023-05-07T09:23:43;1.60;;;1.50;;
19587;SDS011;9940;47.252;8.696;2023-05-07T09:26:09;3.90;;;2.00;;
19587;SDS011;9940;47.252;8.696;2023-05-07T09:28:43;3.00;;;1.70;;
19587;SDS011;9940;47.252;8.696;2023-05-07T09:31:09;2.83;;;1.10;;
19587;SDS011;9940;47.252;8.696;2023-05-07T09:33:35;1.75;;;1.65;;
19587;SDS011;9940;47.252;8.696;2023-05-07T09:36:04;2.47;;;1.77;;
19587;SDS011;9940;47.252;8.696;2023-05-07T09:38:32;1.92;;;1.70;;
19587;SDS011;9940;47.252;8.696;2023-05-07T09:43:32;5.40;;;2.20;;
19587;SDS011;9940;47.252;8.696;2023-05-07T09:46:01;2.13;;;2.03;;
19587;SDS011;9940;47.252;8.696;2023-05-07T09:48:29;1.25;;;1.15;;
19587;SDS011;9940;47.252;8.696;2023-05-07T09:51:01;2.10;;;1.67;;
19587;SDS011;9940;47.252;8.696;2023-05-07T09:53:35;4.55;;;2.60;;
19587;SDS011;9940;47.252;8.696;2023-05-07T09:56:02;2.75;;;1.83;;
19587;SDS011;9940;47.252;8.696;2023-05-07T09:58:28;2.28;;;1.70;;
19587;SDS011;9940;47.252;8.696;2023-05-07T10:00:55;3.15;;;1.80;;
19587;SDS011;9940;47.252;8.696;2023-05-07T10:03:22;1.95;;;1.85;;
19587;SDS011;9940;47.252;8.696;2023-05-07T10:05:54;2.03;;;1.88;;
19587;SDS011;9940;47.252;8.696;2023-05-07T10:08:21;2.58;;;1.80;;
19587;SDS011;9940;47.252;8.696;2023-05-07T10:10:46;2.08;;;1.98;;
19587;SDS011;9940;47.252;8.696;2023-05-07T10:13:13;2.20;;;2.10;;
19587;SDS011;9940;47.252;8.696;2023-05-07T10:15:44;2.10;;;1.90;;
19587;SDS011;9940;47.252;8.696;2023-05-07T10:18:10;2.03;;;1.80;;
19587;SDS011;9940;47.252;8.696;2023-05-07T10:20:39;3.65;;;2.40;;
19587;SDS011;9940;47.252;8.696;2023-05-07T10:23:12;3.63;;;2.50;;
19587;SDS011;9940;47.252;8.696;2023-05-07T10:25:39;4.22;;;2.03;;
19587;SDS011;9940;47.252;8.696;2023-05-07T10:28:08;2.88;;;2.00;;
19587;SDS011;9940;47.252;8.696;2023-05-07T10:33:26;5.88;;;2.92;;
19587;SDS011;9940;47.252;8.696;2023-05-07T10:35:57;3.20;;;2.90;;
19587;SDS011;9940;47.252;8.696;2023-05-07T10:38:29;3.20;;;2.92;;
19587;SDS011;9940;47.252;8.696;2023-05-07T10:40:57;2.72;;;1.80;;
19587;SDS011;9940;47.252;8.696;2023-05-07T10:43:28;3.95;;;2.00;;
19587;SDS011;9940;47.252;8.696;2023-05-07T10:46:13;3.83;;;2.38;;
19587;SDS011;9940;47.252;8.696;2023-05-07T10:51:31;9.18;;;2.30;;
19587;SDS011;9940;47.252;8.696;2023-05-07T10:56:41;2.72;;;2.10;;
19587;SDS011;9940;47.252;8.696;2023-05-07T11:04:20;3.80;;;3.50;;
19587;SDS011;9940;47.252;8.696;2023-05-07T11:12:16;2.55;;;2.35;;
19587;SDS011;9940;47.252;8.696;2023-05-07T11:14:43;3.72;;;3.47;;
19587;SDS011;9940;47.252;8.696;2023-05-07T11:17:11;5.22;;;3.83;;
19587;SDS011;9940;47.252;8.696;2023-05-07T11:24:58;4.47;;;4.13;;
19587;SDS011;9940;47.252;8.696;2023-05-07T11:27:25;3.80;;;3.60;;
19587;SDS011;9940;47.252;8.696;2023-05-07T11:29:51;3.03;;;2.72;;
19587;SDS011;9940;47.252;8.696;2023-05-07T11:32:23;3.65;;;3.40;;
19587;SDS011;9940;47.252;8.696;2023-05-07T11:34:53;3.95;;;3.58;;
19587;SDS011;9940;47.252;8.696;2023-05-07T11:37:19;3.40;;;3.20;;
19587;SDS011;9940;47.252;8.696;2023-05-07T11:39:45;4.00;;;3.75;;
19587;SDS011;9940;47.252;8.696;2023-05-07T11:42:30;4.82;;;4.53;;
19587;SDS011;9940;47.252;8.696;2023-05-07T11:44:57;3.67;;;3.47;;
19587;SDS011;9940;47.252;8.696;2023-05-07T11:47:26;5.15;;;4.85;;
19587;SDS011;9940;47.252;8.696;2023-05-07T11:49:57;2.58;;;2.38;;
19587;SDS011;9940;47.252;8.696;2023-05-07T11:52:35;4.40;;;4.20;;
19587;SDS011;9940;47.252;8.696;2023-05-07T11:55:04;6.55;;;6.15;;
19587;SDS011;9940;47.252;8.696;2023-05-07T11:57:30;7.00;;;6.60;;
19587;SDS011;9940;47.252;8.696;2023-05-07T11:59:58;5.25;;;5.05;;
19587;SDS011;9940;47.252;8.696;2023-05-07T12:02:27;7.70;;;7.30;;
19587;SDS011;9940;47.252;8.696;2023-05-07T12:04:55;7.13;;;6.82;;
19587;SDS011;9940;47.252;8.696;2023-05-07T12:07:21;10.55;;;9.95;;
19587;SDS011;9940;47.252;8.696;2023-05-07T12:09:48;5.93;;;5.63;;
19587;SDS011;9940;47.252;8.696;2023-05-07T12:12:15;8.05;;;7.55;;
19587;SDS011;9940;47.252;8.696;2023-05-07T12:14:42;8.18;;;7.88;;
19587;SDS011;9940;47.252;8.696;2023-05-07T12:17:09;7.63;;;7.25;;
19587;SDS011;9940;47.252;8.696;2023-05-07T12:19:39;9.40;;;9.00;;
19587;SDS011;9940;47.252;8.696;2023-05-07T12:22:09;4.68;;;4.47;;
19587;SDS011;9940;47.252;8.696;2023-05-07T12:25:08;6.50;;;5.90;;
19587;SDS011;9940;47.252;8.696;2023-05-07T12:29:56;11.32;;;10.63;;
19587;SDS011;9940;47.252;8.696;2023-05-07T12:32:25;24.25;;;23.05;;
19587;SDS011;9940;47.252;8.696;2023-05-07T12:34:53;23.83;;;22.50;;
19587;SDS011;9940;47.252;8.696;2023-05-07T12:37:25;22.90;;;21.80;;
19587;SDS011;9940;47.252;8.696;2023-05-07T12:40:09;20.23;;;19.20;;
19587;SDS011;9940;47.252;8.696;2023-05-07T12:42:39;32.60;;;31.00;;
19587;SDS011;9940;47.252;8.696;2023-05-07T12:45:11;32.60;;;31.10;;
19587;SDS011;9940;47.252;8.696;2023-05-07T12:47:44;39.88;;;38.08;;
19587;SDS011;9940;47.252;8.696;2023-05-07T12:50:15;47.65;;;45.45;;
19587;SDS011;9940;47.252;8.696;2023-05-07T12:52:42;57.10;;;54.40;;
19587;SDS011;9940;47.252;8.696;2023-05-07T12:55:12;73.10;;;69.85;;
19587;SDS011;9940;47.252;8.696;2023-05-07T12:57:41;75.10;;;71.70;;
19587;SDS011;9940;47.252;8.696;2023-05-07T13:00:10;135.45;;;129.73;;
19587;SDS011;9940;47.252;8.696;2023-05-07T13:02:40;110.55;;;105.70;;
19587;SDS011;9940;47.252;8.696;2023-05-07T13:05:12;120.07;;;115.03;;
19587;SDS011;9940;47.252;8.696;2023-05-07T13:07:37;98.97;;;94.57;;
19587;SDS011;9940;47.252;8.696;2023-05-07T13:10:06;47.40;;;44.85;;
19587;SDS011;9940;47.252;8.696;2023-05-07T13:12:35;83.10;;;79.30;;
19587;SDS011;9940;47.252;8.696;2023-05-07T13:15:00;91.78;;;87.72;;
19587;SDS011;9940;47.252;8.696;2023-05-07T13:17:28;110.07;;;105.35;;
19587;SDS011;9940;47.252;8.696;2023-05-07T13:19:56;103.55;;;99.07;;
19587;SDS011;9940;47.252;8.696;2023-05-07T13:22:22;105.22;;;100.65;;
19587;SDS011;9940;47.252;8.696;2023-05-07T13:24:47;124.43;;;119.18;;
19587;SDS011;9940;47.252;8.696;2023-05-07T13:27:13;116.85;;;111.82;;
19587;SDS011;9940;47.252;8.696;2023-05-07T13:29:41;115.20;;;110.22;;
19587;SDS011;9940;47.252;8.696;2023-05-07T13:32:06;132.75;;;127.18;;
19587;SDS011;9940;47.252;8.696;2023-05-07T13:34:32;151.75;;;145.48;;
19587;SDS011;9940;47.252;8.696;2023-05-07T13:37:00;114.38;;;109.45;;
19587;SDS011;9940;47.252;8.696;2023-05-07T13:39:28;115.90;;;110.82;;
19587;SDS011;9940;47.252;8.696;2023-05-07T13:41:59;76.82;;;73.32;;
19587;SDS011;9940;47.252;8.696;2023-05-07T13:44:24;61.88;;;59.08;;
19587;SDS011;9940;47.252;8.696;2023-05-07T13:46:51;72.13;;;68.78;;
19587;SDS011;9940;47.252;8.696;2023-05-07T13:49:18;39.85;;;37.97;;
19587;SDS011;9940;47.252;8.696;2023-05-07T13:51:44;37.35;;;35.42;;
19587;SDS011;9940;47.252;8.696;2023-05-07T13:54:10;21.48;;;20.27;;
19587;SDS011;9940;47.252;8.696;2023-05-07T13:56:38;17.55;;;16.55;;
19587;SDS011;9940;47.252;8.696;2023-05-07T13:59:06;14.75;;;13.90;;
19587;SDS011;9940;47.252;8.696;2023-05-07T14:01:32;13.25;;;12.35;;
19587;SDS011;9940;47.252;8.696;2023-05-07T14:03:57;9.20;;;8.60;;
19587;SDS011;9940;47.252;8.696;2023-05-07T14:06:24;11.98;;;9.13;;
19587;SDS011;9940;47.252;8.696;2023-05-07T14:08:50;6.43;;;5.82;;
19587;SDS011;9940;47.252;8.696;2023-05-07T14:11:16;6.03;;;5.45;;
19587;SDS011;9940;47.252;8.696;2023-05-07T14:13:45;7.28;;;6.40;;
19587;SDS011;9940;47.252;8.696;2023-05-07T14:16:13;8.57;;;7.97;;
19587;SDS011;9940;47.252;8.696;2023-05-07T14:18:39;11.07;;;10.27;;
19587;SDS011;9940;47.252;8.696;2023-05-07T14:21:05;7.25;;;6.75;;
19587;SDS011;9940;47.252;8.696;2023-05-07T14:23:34;7.28;;;6.65;;
19587;SDS011;9940;47.252;8.696;2023-05-07T14:26:00;6.05;;;5.55;;
19587;SDS011;9940;47.252;8.696;2023-05-07T14:28:25;5.95;;;5.55;;
19587;SDS011;9940;47.252;8.696;2023-05-07T14:30:51;6.13;;;5.60;;
19587;SDS011;9940;47.252;8.696;2023-05-07T14:33:17;5.70;;;5.13;;
19587;SDS011;9940;47.252;8.696;2023-05-07T14:35:42;6.30;;;5.70;;
19587;SDS011;9940;47.252;8.696;2023-05-07T14:38:13;4.85;;;4.55;;
19587;SDS011;9940;47.252;8.696;2023-05-07T14:40:41;5.18;;;4.53;;
19587;SDS011;9940;47.252;8.696;2023-05-07T14:43:12;5.07;;;4.22;;
19587;SDS011;9940;47.252;8.696;2023-05-07T14:45:38;6.07;;;4.47;;
19587;SDS011;9940;47.252;8.696;2023-05-07T14:48:03;4.93;;;4.20;;
19587;SDS011;9940;47.252;8.696;2023-05-07T14:50:29;4.93;;;4.63;;
19587;SDS011;9940;47.252;8.696;2023-05-07T14:52:57;4.43;;;4.13;;
19587;SDS011;9940;47.252;8.696;2023-05-07T14:55:25;8.50;;;4.18;;
19587;SDS011;9940;47.252;8.696;2023-05-07T14:57:53;6.25;;;4.50;;
19587;SDS011;9940;47.252;8.696;2023-05-07T15:00:18;3.50;;;3.20;;
19587;SDS011;9940;47.252;8.696;2023-05-07T15:02:44;2.65;;;2.45;;
19587;SDS011;9940;47.252;8.696;2023-05-07T15:05:12;4.65;;;2.60;;
19587;SDS011;9940;47.252;8.696;2023-05-07T15:07:39;4.22;;;2.78;;
19587;SDS011;9940;47.252;8.696;2023-05-07T15:10:05;2.85;;;2.65;;
19587;SDS011;9940;47.252;8.696;2023-05-07T15:12:31;3.17;;;2.10;;
19587;SDS011;9940;47.252;8.696;2023-05-07T15:14:59;3.65;;;2.75;;
19587;SDS011;9940;47.252;8.696;2023-05-07T15:17:25;3.53;;;2.60;;
19587;SDS011;9940;47.252;8.696;2023-05-07T15:19:50;2.40;;;2.20;;
19587;SDS011;9940;47.252;8.696;2023-05-07T15:22:16;3.17;;;2.28;;
19587;SDS011;9940;47.252;8.696;2023-05-07T15:24:42;2.33;;;2.13;;
19587;SDS011;9940;47.252;8.696;2023-05-07T15:27:08;2.50;;;2.30;;
19587;SDS011;9940;47.252;8.696;2023-05-07T15:29:35;2.90;;;2.60;;